Time;durP1;ratioP1;P1;durP2;ratioP2;P2;SDS_P1;SDS_P2;PMS_P1;PMS_P2;Temp;Humidity;BMP_temperature;BMP_pressure;BME280_temperature;BME280_humidity;BME280_pressure;Samples;Min_cycle;Max_cycle;Signal;HPM_P1;HPM_P2
2023/11/21 00:09:05;;;;;;;34.90;19.50;;;0.40;99.90;;;;;;5817201;24;20623;-87
2023/11/21 00:34:15;;;;;;;32.87;20.13;;;0.40;99.90;;;;;;5679023;24;20201;-86
2023/11/21 01:45:36;;;;;;;32.53;16.83;;;0.00;99.90;;;;;;5793684;23;20277;-85
2023/11/21 02:16:06;;;;;;;22.07;12.50;;;-0.10;99.90;;;;;;5766843;24;20228;-86
2023/11/21 03:07:02;;;;;;;37.67;19.73;;;-0.20;99.90;;;;;;5821229;23;20338;-85
2023/11/21 04:22:56;;;;;;;29.97;17.10;;;-0.40;99.90;;;;;;4762711;29;20610;-83
2023/11/21 05:03:29;;;;;;;28.67;16.83;;;-0.50;99.90;;;;;;4803286;29;20218;-87
2023/11/21 05:23:57;;;;;;;32.00;18.33;;;-0.50;99.90;;;;;;4806512;29;20218;-86
2023/11/21 05:49:03;;;;;;;27.40;15.67;;;-0.50;99.90;;;;;;4716660;29;20249;-87
2023/11/21 06:34:59;;;;;;;22.90;13.83;;;-0.40;99.90;;;;;;4846835;28;20622;-84
2023/11/21 07:10:20;;;;;;;24.70;13.73;;;-0.50;99.90;;;;;;4735268;28;20273;-81
2023/11/21 07:35:13;;;;;;;22.77;13.17;;;-0.40;99.90;;;;;;4744565;28;20671;-82
2023/11/21 08:06:28;;;;;;;26.70;15.60;;;-0.50;99.90;;;;;;4575425;29;20391;-82
2023/11/21 08:48:08;;;;;;;28.17;17.30;;;-0.20;99.90;;;;;;4732736;28;20427;-83
2023/11/21 09:13:51;;;;;;;24.53;16.30;;;-0.20;99.90;;;;;;4734000;28;20794;-82
2023/11/21 09:39:27;;;;;;;28.07;16.77;;;0.00;99.90;;;;;;4718266;28;20300;-82
2023/11/21 10:09:48;;;;;;;23.83;16.63;;;0.20;99.90;;;;;;4594937;29;21185;-81
2023/11/21 10:25:52;;;;;;;20.27;13.67;;;0.40;99.90;;;;;;4513504;30;20887;-83
2023/11/21 11:02:22;;;;;;;22.20;14.10;;;0.70;99.90;;;;;;4393185;30;20768;-85
2023/11/21 11:22:44;;;;;;;23.63;15.83;;;0.40;99.90;;;;;;4612428;29;20700;-85
2023/11/21 11:48:18;;;;;;;23.90;14.50;;;0.20;99.90;;;;;;4398127;30;20872;-84
2023/11/21 12:29:22;;;;;;;25.83;15.37;;;0.20;99.90;;;;;;4514676;30;20702;-86
2023/11/21 12:49:28;;;;;;;26.63;15.87;;;0.00;99.90;;;;;;4530742;30;20597;-82
2023/11/21 13:10:09;;;;;;;23.80;15.70;;;0.00;99.90;;;;;;4683055;29;20288;-84
2023/11/21 13:30:04;;;;;;;26.30;16.80;;;0.00;99.90;;;;;;4507307;30;20603;-82
2023/11/21 13:55:15;;;;;;;25.03;16.67;;;-0.10;99.90;;;;;;4580901;30;21043;-84
2023/11/21 14:20:55;;;;;;;28.30;17.40;;;-0.20;99.90;;;;;;4649251;30;20495;-89
2023/11/21 15:01:26;;;;;;;20.57;12.97;;;-0.40;99.90;;;;;;4750351;29;20227;-84
2023/11/21 15:22:00;;;;;;;28.97;18.30;;;-0.40;99.90;;;;;;4687224;30;20206;-85
2023/11/21 15:47:08;;;;;;;31.33;18.70;;;-0.50;99.90;;;;;;4589710;30;20903;-85
2023/11/21 16:17:54;;;;;;;22.53;14.17;;;-0.60;99.90;;;;;;4702956;29;21053;-87
2023/11/21 16:43:11;;;;;;;23.37;15.17;;;-0.60;99.90;;;;;;4627077;30;20368;-87
2023/11/21 17:13:35;;;;;;;22.47;12.30;;;-0.50;99.90;;;;;;4876215;28;20216;-87
2023/11/21 17:33:39;;;;;;;19.50;11.87;;;-0.60;99.90;;;;;;4612510;30;20537;-86
2023/11/21 18:29:08;;;;;;;18.90;10.77;;;-0.60;99.90;;;;;;4655875;29;20684;-86
2023/11/21 18:55:02;;;;;;;17.00;10.33;;;-0.70;99.90;;;;;;4629736;30;20221;-85
2023/11/21 19:25:25;;;;;;;20.23;12.17;;;-0.70;99.90;;;;;;4817261;29;20211;-85
2023/11/21 19:50:23;;;;;;;17.90;9.90;;;-0.70;99.90;;;;;;4690804;29;20290;-88
2023/11/21 20:10:54;;;;;;;11.30;7.27;;;-0.80;99.90;;;;;;4706666;29;20240;-87
2023/11/21 20:36:10;;;;;;;14.27;8.70;;;-0.90;99.90;;;;;;4571983;30;20905;-84
2023/11/21 20:56:48;;;;;;;17.40;9.87;;;-0.90;99.90;;;;;;4607883;30;20831;-86
2023/11/21 21:16:43;;;;;;;15.87;10.00;;;-0.90;99.90;;;;;;4531260;30;20607;-84
2023/11/21 21:42:28;;;;;;;15.27;10.20;;;-1.00;99.90;;;;;;4650042;30;20651;-88
2023/11/21 22:43:09;;;;;;;18.23;11.47;;;-1.10;99.90;;;;;;4539409;30;20392;-85
2023/11/21 23:08:34;;;;;;;15.67;10.63;;;-1.10;99.90;;;;;;4561915;30;20361;-87
2023/11/21 23:38:43;;;;;;;14.17;9.07;;;-1.20;99.90;;;;;;4542447;30;20432;-87
